sensor_id;sensor_type;location;lat;lon;timestamp;temperature;humidity
20891;DHT22;10605;52.968;8.844;2022-12-18T00:00:54;-8.90;99.90
20891;DHT22;10605;52.968;8.844;2022-12-18T00:03:19;-8.90;99.90
20891;DHT22;10605;52.968;8.844;2022-12-18T00:05:49;-9.00;99.90
20891;DHT22;10605;52.968;8.844;2022-12-18T00:08:16;-9.00;99.90
20891;DHT22;10605;52.968;8.844;2022-12-18T00:10:43;-9.00;99.90
20891;DHT22;10605;52.968;8.844;2022-12-18T00:13:09;-9.10;99.90
20891;DHT22;10605;52.968;8.844;2022-12-18T00:15:36;-9.10;99.90
20891;DHT22;10605;52.968;8.844;2022-12-18T00:18:02;-9.10;99.90
20891;DHT22;10605;52.968;8.844;2022-12-18T00:20:28;-9.10;99.90
20891;DHT22;10605;52.968;8.844;2022-12-18T00:22:54;-9.10;99.90
20891;DHT22;10605;52.968;8.844;2022-12-18T00:25:21;-9.10;99.90
20891;DHT22;10605;52.968;8.844;2022-12-18T00:27:47;-9.20;99.90
20891;DHT22;10605;52.968;8.844;2022-12-18T00:30:12;-9.20;99.90
20891;DHT22;10605;52.968;8.844;2022-12-18T00:32:38;-9.30;99.90
20891;DHT22;10605;52.968;8.844;2022-12-18T00:35:05;-9.30;99.90
20891;DHT22;10605;52.968;8.844;2022-12-18T00:37:33;-9.40;99.90
20891;DHT22;10605;52.968;8.844;2022-12-18T00:39:59;-9.30;99.90
20891;DHT22;10605;52.968;8.844;2022-12-18T00:42:25;-9.40;99.90
20891;DHT22;10605;52.968;8.844;2022-12-18T00:45:09;-9.30;99.90
20891;DHT22;10605;52.968;8.844;2022-12-18T00:47:35;-9.30;99.90
20891;DHT22;10605;52.968;8.844;2022-12-18T00:50:00;-9.30;99.90
20891;DHT22;10605;52.968;8.844;2022-12-18T00:52:26;-9.20;99.90
20891;DHT22;10605;52.968;8.844;2022-12-18T00:54:52;-9.10;99.90
20891;DHT22;10605;52.968;8.844;2022-12-18T00:57:17;-9.10;99.90
20891;DHT22;10605;52.968;8.844;2022-12-18T00:59:43;-9.20;99.90
20891;DHT22;10605;52.968;8.844;2022-12-18T01:02:08;-9.30;99.90
20891;DHT22;10605;52.968;8.844;2022-12-18T01:04:34;-9.30;99.90
20891;DHT22;10605;52.968;8.844;2022-12-18T01:07:00;-9.40;99.90
20891;DHT22;10605;52.968;8.844;2022-12-18T01:09:26;-9.40;99.90
20891;DHT22;10605;52.968;8.844;2022-12-18T01:11:52;-9.40;99.90
20891;DHT22;10605;52.968;8.844;2022-12-18T01:14:17;-9.20;99.90
20891;DHT22;10605;52.968;8.844;2022-12-18T01:16:43;-9.20;99.90
20891;DHT22;10605;52.968;8.844;2022-12-18T01:19:09;-9.20;99.90
20891;DHT22;10605;52.968;8.844;2022-12-18T01:21:35;-9.20;99.90
20891;DHT22;10605;52.968;8.844;2022-12-18T01:24:01;-9.10;99.90
20891;DHT22;10605;52.968;8.844;2022-12-18T01:26:26;-9.00;99.90
20891;DHT22;10605;52.968;8.844;2022-12-18T01:28:55;-9.00;99.90
20891;DHT22;10605;52.968;8.844;2022-12-18T01:31:27;-9.00;99.90
20891;DHT22;10605;52.968;8.844;2022-12-18T01:33:53;-9.00;99.90
20891;DHT22;10605;52.968;8.844;2022-12-18T01:36:30;-9.10;99.90
20891;DHT22;10605;52.968;8.844;2022-12-18T01:38:58;-9.10;99.90
20891;DHT22;10605;52.968;8.844;2022-12-18T01:41:27;-9.10;99.90
20891;DHT22;10605;52.968;8.844;2022-12-18T01:50:15;-9.40;99.90
20891;DHT22;10605;52.968;8.844;2022-12-18T01:52:43;-9.30;99.90
20891;DHT22;10605;52.968;8.844;2022-12-18T01:55:11;-9.30;99.90
20891;DHT22;10605;52.968;8.844;2022-12-18T01:57:38;-9.30;99.90
20891;DHT22;10605;52.968;8.844;2022-12-18T02:00:14;-9.30;99.90
20891;DHT22;10605;52.968;8.844;2022-12-18T02:02:41;-9.30;99.90
20891;DHT22;10605;52.968;8.844;2022-12-18T02:05:09;-9.30;99.90
20891;DHT22;10605;52.968;8.844;2022-12-18T02:10:52;-9.40;99.90
20891;DHT22;10605;52.968;8.844;2022-12-18T02:19:09;-9.30;99.90
20891;DHT22;10605;52.968;8.844;2022-12-18T02:21:54;-9.30;99.90
20891;DHT22;10605;52.968;8.844;2022-12-18T02:27:12;-9.50;99.90
20891;DHT22;10605;52.968;8.844;2022-12-18T02:29:50;-9.40;99.90
20891;DHT22;10605;52.968;8.844;2022-12-18T02:32:29;-9.40;99.90
20891;DHT22;10605;52.968;8.844;2022-12-18T02:34:58;-9.30;99.90
20891;DHT22;10605;52.968;8.844;2022-12-18T02:37:25;-9.30;99.90
20891;DHT22;10605;52.968;8.844;2022-12-18T02:39:55;-9.30;99.90
20891;DHT22;10605;52.968;8.844;2022-12-18T02:42:22;-9.40;99.90
20891;DHT22;10605;52.968;8.844;2022-12-18T02:44:50;-9.50;99.90
20891;DHT22;10605;52.968;8.844;2022-12-18T02:47:32;-9.60;99.90
20891;DHT22;10605;52.968;8.844;2022-12-18T02:52:49;-9.40;99.90
20891;DHT22;10605;52.968;8.844;2022-12-18T02:57:56;-9.20;99.90
20891;DHT22;10605;52.968;8.844;2022-12-18T03:00:39;-9.20;99.90
20891;DHT22;10605;52.968;8.844;2022-12-18T03:03:19;-9.10;99.90
20891;DHT22;10605;52.968;8.844;2022-12-18T03:05:51;-8.80;99.90
20891;DHT22;10605;52.968;8.844;2022-12-18T03:08:24;-8.80;99.90
20891;DHT22;10605;52.968;8.844;2022-12-18T03:11:11;-8.70;99.90
20891;DHT22;10605;52.968;8.844;2022-12-18T03:13:45;-8.60;99.90
20891;DHT22;10605;52.968;8.844;2022-12-18T03:16:27;-8.60;99.90
20891;DHT22;10605;52.968;8.844;2022-12-18T03:19:00;-8.70;99.90
20891;DHT22;10605;52.968;8.844;2022-12-18T03:21:32;-8.70;99.90
20891;DHT22;10605;52.968;8.844;2022-12-18T03:23:59;-8.70;99.90
20891;DHT22;10605;52.968;8.844;2022-12-18T03:26:27;-8.90;99.90
20891;DHT22;10605;52.968;8.844;2022-12-18T03:28:58;-8.90;99.90
20891;DHT22;10605;52.968;8.844;2022-12-18T03:31:26;-8.80;99.90
20891;DHT22;10605;52.968;8.844;2022-12-18T03:33:56;-8.60;99.90
20891;DHT22;10605;52.968;8.844;2022-12-18T03:36:22;-8.50;99.90
20891;DHT22;10605;52.968;8.844;2022-12-18T03:38:48;-8.60;99.90
20891;DHT22;10605;52.968;8.844;2022-12-18T03:41:29;-8.80;99.90
20891;DHT22;10605;52.968;8.844;2022-12-18T03:49:40;-8.70;99.90
20891;DHT22;10605;52.968;8.844;2022-12-18T03:52:18;-8.70;99.90
20891;DHT22;10605;52.968;8.844;2022-12-18T03:54:46;-8.60;99.90
20891;DHT22;10605;52.968;8.844;2022-12-18T03:57:20;-8.40;99.90
20891;DHT22;10605;52.968;8.844;2022-12-18T03:59:49;-8.40;99.90
20891;DHT22;10605;52.968;8.844;2022-12-18T04:02:17;-8.30;99.90
20891;DHT22;10605;52.968;8.844;2022-12-18T04:04:45;-8.30;99.90
20891;DHT22;10605;52.968;8.844;2022-12-18T04:07:13;-8.30;99.90
20891;DHT22;10605;52.968;8.844;2022-12-18T04:09:40;-8.30;99.90
20891;DHT22;10605;52.968;8.844;2022-12-18T04:12:08;-8.20;99.90
20891;DHT22;10605;52.968;8.844;2022-12-18T04:14:34;-8.20;99.90
20891;DHT22;10605;52.968;8.844;2022-12-18T04:17:01;-8.20;99.90
20891;DHT22;10605;52.968;8.844;2022-12-18T04:19:27;-8.10;99.90
20891;DHT22;10605;52.968;8.844;2022-12-18T04:21:53;-8.20;99.90
20891;DHT22;10605;52.968;8.844;2022-12-18T04:24:19;-8.30;99.90
20891;DHT22;10605;52.968;8.844;2022-12-18T04:26:44;-8.40;99.90
20891;DHT22;10605;52.968;8.844;2022-12-18T04:29:10;-8.50;99.90
20891;DHT22;10605;52.968;8.844;2022-12-18T04:31:36;-8.50;99.90
20891;DHT22;10605;52.968;8.844;2022-12-18T04:34:01;-8.60;99.90
20891;DHT22;10605;52.968;8.844;2022-12-18T04:36:27;-8.60;99.90
20891;DHT22;10605;52.968;8.844;2022-12-18T04:38:53;-8.70;99.90
20891;DHT22;10605;52.968;8.844;2022-12-18T04:41:18;-8.50;99.90
20891;DHT22;10605;52.968;8.844;2022-12-18T04:43:44;-8.60;99.90
20891;DHT22;10605;52.968;8.844;2022-12-18T04:46:10;-8.60;99.90
20891;DHT22;10605;52.968;8.844;2022-12-18T04:48:36;-8.50;99.90
20891;DHT22;10605;52.968;8.844;2022-12-18T04:51:04;-8.50;99.90
20891;DHT22;10605;52.968;8.844;2022-12-18T04:53:30;-8.60;99.90
20891;DHT22;10605;52.968;8.844;2022-12-18T04:56:10;-8.60;99.90
20891;DHT22;10605;52.968;8.844;2022-12-18T04:58:37;-8.50;99.90
20891;DHT22;10605;52.968;8.844;2022-12-18T05:01:05;-8.40;99.90
20891;DHT22;10605;52.968;8.844;2022-12-18T05:03:31;-8.30;99.90
20891;DHT22;10605;52.968;8.844;2022-12-18T05:05:57;-8.40;99.90
20891;DHT22;10605;52.968;8.844;2022-12-18T05:08:23;-8.40;99.90
20891;DHT22;10605;52.968;8.844;2022-12-18T05:10:48;-8.40;99.90
20891;DHT22;10605;52.968;8.844;2022-12-18T05:13:14;-8.30;99.90
20891;DHT22;10605;52.968;8.844;2022-12-18T05:15:40;-8.40;99.90
20891;DHT22;10605;52.968;8.844;2022-12-18T05:18:08;-8.60;99.90
20891;DHT22;10605;52.968;8.844;2022-12-18T05:20:33;-8.50;99.90
20891;DHT22;10605;52.968;8.844;2022-12-18T05:22:59;-8.50;99.90
20891;DHT22;10605;52.968;8.844;2022-12-18T05:25:25;-8.50;99.90
20891;DHT22;10605;52.968;8.844;2022-12-18T05:27:50;-8.50;99.90
20891;DHT22;10605;52.968;8.844;2022-12-18T05:30:16;-8.60;99.90
20891;DHT22;10605;52.968;8.844;2022-12-18T05:32:42;-8.50;99.90
20891;DHT22;10605;52.968;8.844;2022-12-18T05:35:09;-8.50;99.90
20891;DHT22;10605;52.968;8.844;2022-12-18T05:37:35;-8.50;99.90
20891;DHT22;10605;52.968;8.844;2022-12-18T05:40:02;-8.60;99.90
20891;DHT22;10605;52.968;8.844;2022-12-18T05:42:28;-8.60;99.90
20891;DHT22;10605;52.968;8.844;2022-12-18T05:44:54;-8.50;99.90
20891;DHT22;10605;52.968;8.844;2022-12-18T05:47:19;-8.40;99.90
20891;DHT22;10605;52.968;8.844;2022-12-18T05:49:45;-8.50;99.90
20891;DHT22;10605;52.968;8.844;2022-12-18T05:52:12;-8.40;99.90
20891;DHT22;10605;52.968;8.844;2022-12-18T05:54:37;-8.50;99.90
20891;DHT22;10605;52.968;8.844;2022-12-18T05:57:03;-8.70;99.90
20891;DHT22;10605;52.968;8.844;2022-12-18T05:59:29;-8.70;99.90
20891;DHT22;10605;52.968;8.844;2022-12-18T06:01:54;-8.70;99.90
20891;DHT22;10605;52.968;8.844;2022-12-18T06:04:20;-8.60;99.90
20891;DHT22;10605;52.968;8.844;2022-12-18T06:06:46;-8.60;99.90
20891;DHT22;10605;52.968;8.844;2022-12-18T06:09:11;-8.60;99.90
20891;DHT22;10605;52.968;8.844;2022-12-18T06:11:38;-8.60;99.90
20891;DHT22;10605;52.968;8.844;2022-12-18T06:14:05;-8.70;99.90
20891;DHT22;10605;52.968;8.844;2022-12-18T06:16:31;-8.70;99.90
20891;DHT22;10605;52.968;8.844;2022-12-18T06:18:58;-8.70;99.90
20891;DHT22;10605;52.968;8.844;2022-12-18T06:21:24;-8.60;99.90
20891;DHT22;10605;52.968;8.844;2022-12-18T06:23:49;-8.60;99.90
20891;DHT22;10605;52.968;8.844;2022-12-18T06:26:15;-8.60;99.90
20891;DHT22;10605;52.968;8.844;2022-12-18T06:28:41;-8.50;99.90
20891;DHT22;10605;52.968;8.844;2022-12-18T06:31:07;-8.50;99.90
20891;DHT22;10605;52.968;8.844;2022-12-18T06:33:33;-8.50;99.90
20891;DHT22;10605;52.968;8.844;2022-12-18T06:36:02;-8.50;99.90
20891;DHT22;10605;52.968;8.844;2022-12-18T06:38:28;-8.50;99.90
20891;DHT22;10605;52.968;8.844;2022-12-18T06:40:54;-8.50;99.90
20891;DHT22;10605;52.968;8.844;2022-12-18T06:43:19;-8.60;99.90
20891;DHT22;10605;52.968;8.844;2022-12-18T06:45:45;-8.80;99.90
20891;DHT22;10605;52.968;8.844;2022-12-18T06:48:14;-8.70;99.90
20891;DHT22;10605;52.968;8.844;2022-12-18T06:50:42;-8.60;99.90
20891;DHT22;10605;52.968;8.844;2022-12-18T06:53:08;-8.60;99.90
20891;DHT22;10605;52.968;8.844;2022-12-18T06:55:33;-8.60;99.90
20891;DHT22;10605;52.968;8.844;2022-12-18T06:57:59;-8.80;99.90
20891;DHT22;10605;52.968;8.844;2022-12-18T07:00:24;-8.80;99.90
20891;DHT22;10605;52.968;8.844;2022-12-18T07:02:50;-8.70;99.90
20891;DHT22;10605;52.968;8.844;2022-12-18T07:05:16;-8.60;99.90
20891;DHT22;10605;52.968;8.844;2022-12-18T07:07:41;-8.40;99.90
20891;DHT22;10605;52.968;8.844;2022-12-18T07:10:07;-8.40;99.90
20891;DHT22;10605;52.968;8.844;2022-12-18T07:12:33;-8.40;99.90
20891;DHT22;10605;52.968;8.844;2022-12-18T07:14:59;-8.40;99.90
20891;DHT22;10605;52.968;8.844;2022-12-18T07:17:24;-8.50;99.90
20891;DHT22;10605;52.968;8.844;2022-12-18T07:19:50;-8.50;99.90
20891;DHT22;10605;52.968;8.844;2022-12-18T07:22:15;-8.50;99.90
20891;DHT22;10605;52.968;8.844;2022-12-18T07:24:41;-8.50;99.90
20891;DHT22;10605;52.968;8.844;2022-12-18T07:27:07;-8.40;99.90
20891;DHT22;10605;52.968;8.844;2022-12-18T07:29:32;-8.40;99.90
20891;DHT22;10605;52.968;8.844;2022-12-18T07:31:58;-8.60;99.90
20891;DHT22;10605;52.968;8.844;2022-12-18T07:34:24;-8.60;99.90
20891;DHT22;10605;52.968;8.844;2022-12-18T07:36:49;-8.70;99.90
20891;DHT22;10605;52.968;8.844;2022-12-18T07:39:15;-8.70;99.90
20891;DHT22;10605;52.968;8.844;2022-12-18T07:41:41;-8.70;99.90
20891;DHT22;10605;52.968;8.844;2022-12-18T07:44:11;-8.70;99.90
20891;DHT22;10605;52.968;8.844;2022-12-18T07:46:37;-8.60;99.90
20891;DHT22;10605;52.968;8.844;2022-12-18T07:49:04;-8.60;99.90
20891;DHT22;10605;52.968;8.844;2022-12-18T07:51:29;-8.60;99.90
20891;DHT22;10605;52.968;8.844;2022-12-18T07:53:56;-8.40;99.90
20891;DHT22;10605;52.968;8.844;2022-12-18T07:56:21;-8.40;99.90
20891;DHT22;10605;52.968;8.844;2022-12-18T07:58:47;-8.40;99.90
20891;DHT22;10605;52.968;8.844;2022-12-18T08:01:13;-8.30;99.90
20891;DHT22;10605;52.968;8.844;2022-12-18T08:03:40;-8.30;99.90
20891;DHT22;10605;52.968;8.844;2022-12-18T08:06:07;-8.10;99.90
20891;DHT22;10605;52.968;8.844;2022-12-18T08:08:34;-8.20;99.90
20891;DHT22;10605;52.968;8.844;2022-12-18T08:11:01;-8.20;99.90
20891;DHT22;10605;52.968;8.844;2022-12-18T08:13:27;-8.10;99.90
20891;DHT22;10605;52.968;8.844;2022-12-18T08:16:04;-8.00;99.90
20891;DHT22;10605;52.968;8.844;2022-12-18T08:18:32;-8.00;99.90
20891;DHT22;10605;52.968;8.844;2022-12-18T08:21:06;-7.90;99.90
20891;DHT22;10605;52.968;8.844;2022-12-18T08:23:32;-7.80;99.90
20891;DHT22;10605;52.968;8.844;2022-12-18T08:25:58;-7.60;99.90
20891;DHT22;10605;52.968;8.844;2022-12-18T08:28:23;-7.40;99.90
20891;DHT22;10605;52.968;8.844;2022-12-18T08:30:52;-7.20;99.90
20891;DHT22;10605;52.968;8.844;2022-12-18T08:33:17;-7.00;99.90
20891;DHT22;10605;52.968;8.844;2022-12-18T08:35:43;-6.80;99.90
20891;DHT22;10605;52.968;8.844;2022-12-18T08:38:09;-6.70;99.90
20891;DHT22;10605;52.968;8.844;2022-12-18T08:40:34;-6.40;99.90
20891;DHT22;10605;52.968;8.844;2022-12-18T08:43:00;-6.30;99.90
20891;DHT22;10605;52.968;8.844;2022-12-18T08:45:44;-6.30;99.90
20891;DHT22;10605;52.968;8.844;2022-12-18T08:48:10;-6.10;99.90
20891;DHT22;10605;52.968;8.844;2022-12-18T08:50:36;-5.90;99.90
20891;DHT22;10605;52.968;8.844;2022-12-18T08:53:01;-5.90;99.90
20891;DHT22;10605;52.968;8.844;2022-12-18T08:55:27;-5.90;99.90
20891;DHT22;10605;52.968;8.844;2022-12-18T08:57:53;-5.80;99.90
20891;DHT22;10605;52.968;8.844;2022-12-18T09:00:19;-5.70;99.90
20891;DHT22;10605;52.968;8.844;2022-12-18T09:02:45;-5.60;99.90
20891;DHT22;10605;52.968;8.844;2022-12-18T09:05:10;-5.60;99.90
20891;DHT22;10605;52.968;8.844;2022-12-18T09:07:36;-5.60;99.90
20891;DHT22;10605;52.968;8.844;2022-12-18T09:10:02;-5.50;99.90
20891;DHT22;10605;52.968;8.844;2022-12-18T09:12:28;-5.30;99.90
20891;DHT22;10605;52.968;8.844;2022-12-18T09:14:53;-5.20;99.90
20891;DHT22;10605;52.968;8.844;2022-12-18T09:17:19;-5.10;99.90
20891;DHT22;10605;52.968;8.844;2022-12-18T09:19:45;-4.90;99.90
20891;DHT22;10605;52.968;8.844;2022-12-18T09:22:10;-4.80;99.90
20891;DHT22;10605;52.968;8.844;2022-12-18T09:24:36;-4.70;99.90
20891;DHT22;10605;52.968;8.844;2022-12-18T09:27:02;-4.60;99.90
20891;DHT22;10605;52.968;8.844;2022-12-18T09:29:27;-4.40;99.90
20891;DHT22;10605;52.968;8.844;2022-12-18T09:31:53;-4.10;99.90
20891;DHT22;10605;52.968;8.844;2022-12-18T09:34:19;-4.30;99.90
20891;DHT22;10605;52.968;8.844;2022-12-18T09:36:47;-4.40;99.90
20891;DHT22;10605;52.968;8.844;2022-12-18T09:39:13;-4.60;99.90
20891;DHT22;10605;52.968;8.844;2022-12-18T09:41:54;-4.60;99.90
20891;DHT22;10605;52.968;8.844;2022-12-18T09:44:41;-4.60;99.90
20891;DHT22;10605;52.968;8.844;2022-12-18T09:47:33;-4.70;99.90
20891;DHT22;10605;52.968;8.844;2022-12-18T09:50:05;-4.70;99.90
20891;DHT22;10605;52.968;8.844;2022-12-18T09:52:43;-4.70;99.90
20891;DHT22;10605;52.968;8.844;2022-12-18T09:57:40;-4.70;99.90
20891;DHT22;10605;52.968;8.844;2022-12-18T10:02:39;-4.50;99.90
20891;DHT22;10605;52.968;8.844;2022-12-18T10:05:12;-4.50;99.90
20891;DHT22;10605;52.968;8.844;2022-12-18T10:16:26;-4.10;99.90
20891;DHT22;10605;52.968;8.844;2022-12-18T10:24:32;-3.90;99.90
20891;DHT22;10605;52.968;8.844;2022-12-18T10:27:17;-3.90;99.90
20891;DHT22;10605;52.968;8.844;2022-12-18T10:29:44;-3.80;99.90
20891;DHT22;10605;52.968;8.844;2022-12-18T10:32:15;-3.80;99.90
20891;DHT22;10605;52.968;8.844;2022-12-18T10:34:48;-3.80;99.90
20891;DHT22;10605;52.968;8.844;2022-12-18T10:37:28;-3.80;99.90
20891;DHT22;10605;52.968;8.844;2022-12-18T10:40:13;-3.80;99.90
20891;DHT22;10605;52.968;8.844;2022-12-18T10:42:40;-3.70;99.90
20891;DHT22;10605;52.968;8.844;2022-12-18T10:45:15;-3.80;99.90
20891;DHT22;10605;52.968;8.844;2022-12-18T10:47:48;-3.70;99.90
20891;DHT22;10605;52.968;8.844;2022-12-18T10:52:54;-3.70;99.90
20891;DHT22;10605;52.968;8.844;2022-12-18T10:55:20;-3.70;99.90
20891;DHT22;10605;52.968;8.844;2022-12-18T10:57:46;-3.70;99.90
20891;DHT22;10605;52.968;8.844;2022-12-18T11:00:27;-3.70;99.90
20891;DHT22;10605;52.968;8.844;2022-12-18T11:02:54;-3.60;99.90
20891;DHT22;10605;52.968;8.844;2022-12-18T11:05:30;-3.50;99.90
20891;DHT22;10605;52.968;8.844;2022-12-18T11:07:58;-3.40;99.90
20891;DHT22;10605;52.968;8.844;2022-12-18T11:10:33;-3.30;99.90
20891;DHT22;10605;52.968;8.844;2022-12-18T11:13:15;-3.20;99.90
20891;DHT22;10605;52.968;8.844;2022-12-18T11:15:42;-3.20;99.90
20891;DHT22;10605;52.968;8.844;2022-12-18T11:20:59;-2.80;99.90
20891;DHT22;10605;52.968;8.844;2022-12-18T11:23:27;-2.90;99.90
20891;DHT22;10605;52.968;8.844;2022-12-18T11:25:58;-2.90;99.90
20891;DHT22;10605;52.968;8.844;2022-12-18T11:36:21;-2.60;99.90
20891;DHT22;10605;52.968;8.844;2022-12-18T11:38:49;-2.60;99.90
20891;DHT22;10605;52.968;8.844;2022-12-18T11:41:41;-2.50;99.90
20891;DHT22;10605;52.968;8.844;2022-12-18T11:44:31;-2.40;99.90
20891;DHT22;10605;52.968;8.844;2022-12-18T11:47:05;-2.40;99.90
20891;DHT22;10605;52.968;8.844;2022-12-18T11:49:35;-2.30;99.90
20891;DHT22;10605;52.968;8.844;2022-12-18T11:52:26;-2.20;99.90
20891;DHT22;10605;52.968;8.844;2022-12-18T11:54:58;-2.30;99.90
20891;DHT22;10605;52.968;8.844;2022-12-18T11:57:30;-2.40;99.90
20891;DHT22;10605;52.968;8.844;2022-12-18T12:00:13;-2.40;99.90
20891;DHT22;10605;52.968;8.844;2022-12-18T12:11:02;-2.10;99.90
20891;DHT22;10605;52.968;8.844;2022-12-18T12:16:48;-2.10;99.90
20891;DHT22;10605;52.968;8.844;2022-12-18T12:19:46;-2.10;99.90
20891;DHT22;10605;52.968;8.844;2022-12-18T12:22:41;-2.10;99.90
20891;DHT22;10605;52.968;8.844;2022-12-18T12:33:26;-2.10;99.90
20891;DHT22;10605;52.968;8.844;2022-12-18T12:39:01;-2.10;99.90
20891;DHT22;10605;52.968;8.844;2022-12-18T12:41:32;-2.20;99.90
20891;DHT22;10605;52.968;8.844;2022-12-18T12:44:29;-2.20;99.90
20891;DHT22;10605;52.968;8.844;2022-12-18T12:47:00;-2.20;99.90
20891;DHT22;10605;52.968;8.844;2022-12-18T12:49:32;-2.20;99.90
20891;DHT22;10605;52.968;8.844;2022-12-18T12:52:05;-2.20;99.90
20891;DHT22;10605;52.968;8.844;2022-12-18T12:54:32;-2.20;99.90
20891;DHT22;10605;52.968;8.844;2022-12-18T12:57:39;-2.20;99.90
20891;DHT22;10605;52.968;8.844;2022-12-18T13:00:18;-2.20;99.90
20891;DHT22;10605;52.968;8.844;2022-12-18T13:02:56;-2.20;99.90
20891;DHT22;10605;52.968;8.844;2022-12-18T13:05:53;-2.20;99.90
20891;DHT22;10605;52.968;8.844;2022-12-18T13:08:25;-2.20;99.90
20891;DHT22;10605;52.968;8.844;2022-12-18T13:10:52;-2.20;99.90
20891;DHT22;10605;52.968;8.844;2022-12-18T13:13:53;-2.20;99.90
20891;DHT22;10605;52.968;8.844;2022-12-18T13:16:22;-2.20;99.90
20891;DHT22;10605;52.968;8.844;2022-12-18T13:18:57;-2.20;99.90
20891;DHT22;10605;52.968;8.844;2022-12-18T13:21:31;-2.10;99.90
20891;DHT22;10605;52.968;8.844;2022-12-18T13:24:15;-2.20;99.90
20891;DHT22;10605;52.968;8.844;2022-12-18T13:26:41;-2.20;99.90
20891;DHT22;10605;52.968;8.844;2022-12-18T13:29:07;-2.20;99.90
20891;DHT22;10605;52.968;8.844;2022-12-18T13:34:18;-2.20;99.90
20891;DHT22;10605;52.968;8.844;2022-12-18T13:36:45;-2.20;99.90
20891;DHT22;10605;52.968;8.844;2022-12-18T13:41:43;-2.20;99.90
20891;DHT22;10605;52.968;8.844;2022-12-18T13:46:51;-2.20;99.90
20891;DHT22;10605;52.968;8.844;2022-12-18T13:52:01;-2.30;99.90
20891;DHT22;10605;52.968;8.844;2022-12-18T13:54:40;-2.30;99.90
20891;DHT22;10605;52.968;8.844;2022-12-18T13:59:50;-2.30;99.90
20891;DHT22;10605;52.968;8.844;2022-12-18T14:02:20;-2.30;99.90
20891;DHT22;10605;52.968;8.844;2022-12-18T14:04:48;-2.30;99.90
20891;DHT22;10605;52.968;8.844;2022-12-18T14:07:19;-2.30;99.90
20891;DHT22;10605;52.968;8.844;2022-12-18T14:09:53;-2.30;99.90
20891;DHT22;10605;52.968;8.844;2022-12-18T14:12:32;-2.30;99.90
20891;DHT22;10605;52.968;8.844;2022-12-18T14:18:30;-2.40;99.90
20891;DHT22;10605;52.968;8.844;2022-12-18T14:20:59;-2.30;99.90
20891;DHT22;10605;52.968;8.844;2022-12-18T14:23:45;-2.30;99.90
20891;DHT22;10605;52.968;8.844;2022-12-18T14:26:27;-2.30;99.90
20891;DHT22;10605;52.968;8.844;2022-12-18T14:28:58;-2.30;99.90
20891;DHT22;10605;52.968;8.844;2022-12-18T14:31:28;-2.30;99.90
20891;DHT22;10605;52.968;8.844;2022-12-18T14:33:54;-2.30;99.90
20891;DHT22;10605;52.968;8.844;2022-12-18T14:36:24;-2.20;99.90
20891;DHT22;10605;52.968;8.844;2022-12-18T14:38:58;-2.20;99.90
20891;DHT22;10605;52.968;8.844;2022-12-18T14:41:24;-2.20;99.90
20891;DHT22;10605;52.968;8.844;2022-12-18T14:43:52;-2.10;99.90
20891;DHT22;10605;52.968;8.844;2022-12-18T14:49:23;-2.20;99.90
20891;DHT22;10605;52.968;8.844;2022-12-18T14:52:02;-2.20;99.90
20891;DHT22;10605;52.968;8.844;2022-12-18T14:54:30;-2.20;99.90
20891;DHT22;10605;52.968;8.844;2022-12-18T14:57:27;-2.20;99.90
20891;DHT22;10605;52.968;8.844;2022-12-18T15:00:04;-2.20;99.90
20891;DHT22;10605;52.968;8.844;2022-12-18T15:02:30;-2.20;99.90
20891;DHT22;10605;52.968;8.844;2022-12-18T15:05:02;-2.20;99.90
20891;DHT22;10605;52.968;8.844;2022-12-18T15:07:44;-2.20;99.90
20891;DHT22;10605;52.968;8.844;2022-12-18T15:12:45;-2.30;99.90
20891;DHT22;10605;52.968;8.844;2022-12-18T15:17:59;-2.30;99.90
20891;DHT22;10605;52.968;8.844;2022-12-18T15:20:27;-2.30;99.90
20891;DHT22;10605;52.968;8.844;2022-12-18T15:22:53;-2.30;99.90
20891;DHT22;10605;52.968;8.844;2022-12-18T15:25:29;-2.40;99.90
20891;DHT22;10605;52.968;8.844;2022-12-18T15:27:57;-2.40;99.90
20891;DHT22;10605;52.968;8.844;2022-12-18T15:30:24;-2.50;99.90
20891;DHT22;10605;52.968;8.844;2022-12-18T15:32:51;-2.50;99.90
20891;DHT22;10605;52.968;8.844;2022-12-18T15:35:19;-2.50;99.90
20891;DHT22;10605;52.968;8.844;2022-12-18T15:37:46;-2.50;99.90
20891;DHT22;10605;52.968;8.844;2022-12-18T15:40:14;-2.50;99.90
20891;DHT22;10605;52.968;8.844;2022-12-18T15:42:40;-2.50;99.90
20891;DHT22;10605;52.968;8.844;2022-12-18T15:45:24;-2.50;99.90
20891;DHT22;10605;52.968;8.844;2022-12-18T15:47:50;-2.50;99.90
20891;DHT22;10605;52.968;8.844;2022-12-18T15:50:15;-2.50;99.90
20891;DHT22;10605;52.968;8.844;2022-12-18T15:52:43;-2.40;99.90
20891;DHT22;10605;52.968;8.844;2022-12-18T15:55:18;-2.50;99.90
20891;DHT22;10605;52.968;8.844;2022-12-18T15:58:04;-2.50;99.90
20891;DHT22;10605;52.968;8.844;2022-12-18T16:00:30;-2.50;99.90
20891;DHT22;10605;52.968;8.844;2022-12-18T16:02:55;-2.40;99.90
20891;DHT22;10605;52.968;8.844;2022-12-18T16:05:21;-2.40;99.90
20891;DHT22;10605;52.968;8.844;2022-12-18T16:07:48;-2.40;99.90
20891;DHT22;10605;52.968;8.844;2022-12-18T16:10:14;-2.40;99.90
20891;DHT22;10605;52.968;8.844;2022-12-18T16:12:41;-2.40;99.90
20891;DHT22;10605;52.968;8.844;2022-12-18T16:15:09;-2.40;99.90
20891;DHT22;10605;52.968;8.844;2022-12-18T16:17:36;-2.30;99.90
20891;DHT22;10605;52.968;8.844;2022-12-18T16:20:02;-2.30;99.90
20891;DHT22;10605;52.968;8.844;2022-12-18T16:22:29;-2.30;99.90
20891;DHT22;10605;52.968;8.844;2022-12-18T16:24:56;-2.30;99.90
20891;DHT22;10605;52.968;8.844;2022-12-18T16:27:23;-2.30;99.90
20891;DHT22;10605;52.968;8.844;2022-12-18T16:29:49;-2.30;99.90
20891;DHT22;10605;52.968;8.844;2022-12-18T16:32:18;-2.30;99.90
20891;DHT22;10605;52.968;8.844;2022-12-18T16:34:44;-2.30;99.90
20891;DHT22;10605;52.968;8.844;2022-12-18T16:37:12;-2.30;99.90
20891;DHT22;10605;52.968;8.844;2022-12-18T16:39:38;-2.30;99.90
20891;DHT22;10605;52.968;8.844;2022-12-18T16:42:16;-2.30;99.90
20891;DHT22;10605;52.968;8.844;2022-12-18T16:44:45;-2.30;99.90
20891;DHT22;10605;52.968;8.844;2022-12-18T16:47:11;-2.30;99.90
20891;DHT22;10605;52.968;8.844;2022-12-18T16:49:38;-2.30;99.90
20891;DHT22;10605;52.968;8.844;2022-12-18T16:52:05;-2.30;99.90
20891;DHT22;10605;52.968;8.844;2022-12-18T16:54:31;-2.30;99.90
20891;DHT22;10605;52.968;8.844;2022-12-18T16:56:59;-2.30;99.90
20891;DHT22;10605;52.968;8.844;2022-12-18T16:59:25;-2.20;99.90
20891;DHT22;10605;52.968;8.844;2022-12-18T17:01:51;-2.30;99.90
20891;DHT22;10605;52.968;8.844;2022-12-18T17:04:17;-2.20;99.90
20891;DHT22;10605;52.968;8.844;2022-12-18T17:06:45;-2.20;99.90
20891;DHT22;10605;52.968;8.844;2022-12-18T17:09:17;-2.20;99.90
20891;DHT22;10605;52.968;8.844;2022-12-18T17:11:53;-2.30;99.90
20891;DHT22;10605;52.968;8.844;2022-12-18T17:14:20;-2.30;99.90
20891;DHT22;10605;52.968;8.844;2022-12-18T17:16:47;-2.30;99.90
20891;DHT22;10605;52.968;8.844;2022-12-18T17:19:13;-2.30;99.90
20891;DHT22;10605;52.968;8.844;2022-12-18T17:21:41;-2.30;99.90
20891;DHT22;10605;52.968;8.844;2022-12-18T17:24:07;-2.20;99.90
20891;DHT22;10605;52.968;8.844;2022-12-18T17:26:33;-2.20;99.90
20891;DHT22;10605;52.968;8.844;2022-12-18T17:28:59;-2.20;99.90
20891;DHT22;10605;52.968;8.844;2022-12-18T17:31:27;-2.20;99.90
20891;DHT22;10605;52.968;8.844;2022-12-18T17:33:54;-2.20;99.90